Time;durP1;ratioP1;P1;durP2;ratioP2;P2;SDS_P1;SDS_P2;PMS_P1;PMS_P2;Temp;Humidity;BMP_temperature;BMP_pressure;BME280_temperature;BME280_humidity;BME280_pressure;Samples;Min_cycle;Max_cycle;Signal;HPM_P1;HPM_P2
2022/03/08 00:00:31;;;;;;;11.13;5.68;;;1.20;99.90;;;;;;5035193;28;20049;-66
2022/03/08 00:02:57;;;;;;;7.28;4.65;;;1.10;99.90;;;;;;5034792;28;20041;-67
2022/03/08 00:05:23;;;;;;;8.98;5.72;;;1.20;99.90;;;;;;5035665;28;20049;-67
2022/03/08 00:07:50;;;;;;;9.82;5.55;;;0.90;99.90;;;;;;5035154;28;20489;-66
2022/03/08 00:10:17;;;;;;;11.00;5.63;;;2.20;99.90;;;;;;5034327;28;20055;-66
2022/03/08 00:12:46;;;;;;;10.65;5.55;;;0.60;99.90;;;;;;5035024;28;20485;-67
2022/03/08 00:15:14;;;;;;;10.15;5.43;;;1.00;99.90;;;;;;5035436;28;20033;-67
2022/03/08 00:17:39;;;;;;;9.50;5.53;;;1.10;99.90;;;;;;5034102;28;20041;-67
2022/03/08 00:20:08;;;;;;;8.13;5.03;;;0.90;99.90;;;;;;5034798;28;20043;-67
2022/03/08 00:22:35;;;;;;;10.65;5.38;;;0.90;99.90;;;;;;5035639;28;20371;-67
2022/03/08 00:25:01;;;;;;;11.20;5.00;;;2.00;99.90;;;;;;5052087;28;20390;-66
2022/03/08 00:27:30;;;;;;;11.23;5.68;;;0.90;99.90;;;;;;5052688;28;20456;-67
2022/03/08 00:29:56;;;;;;;11.35;5.43;;;1.00;99.90;;;;;;5052612;28;20124;-67
2022/03/08 00:32:23;;;;;;;9.30;5.18;;;0.70;99.90;;;;;;5033984;28;20041;-67
2022/03/08 00:34:49;;;;;;;11.32;5.43;;;0.90;99.90;;;;;;5035044;28;20045;-67
2022/03/08 00:37:15;;;;;;;10.50;6.00;;;0.90;99.90;;;;;;5034485;28;20482;-67
2022/03/08 00:39:41;;;;;;;11.80;5.97;;;0.50;99.90;;;;;;5033626;28;20053;-66
2022/03/08 00:42:11;;;;;;;11.35;5.68;;;0.80;99.90;;;;;;5052721;28;20090;-67
2022/03/08 00:44:44;;;;;;;10.93;5.47;;;0.70;99.90;;;;;;5034679;28;20033;-67
2022/03/08 00:47:11;;;;;;;9.60;5.50;;;0.80;99.90;;;;;;5034533;28;20120;-67
2022/03/08 00:49:38;;;;;;;12.25;6.18;;;0.80;99.90;;;;;;5034757;28;20072;-66
2022/03/08 00:52:04;;;;;;;10.43;5.97;;;0.70;99.90;;;;;;5033303;28;20053;-66
2022/03/08 00:54:30;;;;;;;11.88;6.38;;;0.90;99.90;;;;;;5034729;28;20056;-67
2022/03/08 00:56:56;;;;;;;8.55;5.35;;;0.80;99.90;;;;;;5052287;28;20041;-66
2022/03/08 00:59:21;;;;;;;10.98;6.10;;;0.50;99.90;;;;;;5051482;28;20041;-67
2022/03/08 01:01:47;;;;;;;10.07;6.85;;;1.10;99.90;;;;;;5034432;28;20397;-66
2022/03/08 01:04:13;;;;;;;11.30;6.70;;;0.60;99.90;;;;;;5052051;28;20133;-66
2022/03/08 01:06:40;;;;;;;10.48;7.20;;;0.30;99.90;;;;;;5033897;28;20072;-66
2022/03/08 01:09:06;;;;;;;11.07;6.53;;;;;;;;;;5034706;28;20048;-66
2022/03/08 01:11:33;;;;;;;9.10;7.25;;;0.60;99.90;;;;;;5034428;28;20045;-66
2022/03/08 01:13:59;;;;;;;14.00;7.55;;;0.60;99.90;;;;;;5016608;28;20525;-66
2022/03/08 01:16:25;;;;;;;10.38;7.25;;;0.50;99.90;;;;;;5034140;28;20037;-67
2022/03/08 01:18:51;;;;;;;9.93;6.60;;;1.00;99.90;;;;;;5034151;28;20452;-67
2022/03/08 01:21:16;;;;;;;11.85;6.13;;;0.70;99.90;;;;;;5033699;28;20044;-67
2022/03/08 01:23:42;;;;;;;10.50;5.85;;;0.70;99.90;;;;;;5017462;28;20545;-66
2022/03/08 01:26:08;;;;;;;12.70;6.85;;;0.20;99.90;;;;;;5033660;28;20095;-66
2022/03/08 01:28:34;;;;;;;12.13;5.93;;;0.50;99.90;;;;;;5033445;28;20424;-66
2022/03/08 01:31:01;;;;;;;11.32;6.20;;;0.30;99.90;;;;;;5034011;28;20053;-66
2022/03/08 01:33:27;;;;;;;12.93;6.65;;;0.50;99.90;;;;;;5033896;28;20051;-66
2022/03/08 01:35:54;;;;;;;12.07;6.07;;;0.30;99.90;;;;;;5051106;28;20116;-66
2022/03/08 01:38:20;;;;;;;8.23;4.93;;;0.00;99.90;;;;;;5033846;28;20057;-67
2022/03/08 01:40:46;;;;;;;11.50;6.20;;;0.10;99.90;;;;;;5030156;28;20132;-66
2022/03/08 01:43:12;;;;;;;12.13;6.75;;;0.90;99.90;;;;;;5030323;28;20081;-66
2022/03/08 01:45:37;;;;;;;11.07;6.13;;;0.40;99.90;;;;;;5030622;28;20563;-66
2022/03/08 01:48:03;;;;;;;10.32;5.70;;;0.60;99.90;;;;;;5031155;28;20394;-66
2022/03/08 01:50:29;;;;;;;11.00;6.32;;;0.40;99.90;;;;;;5034298;28;20501;-66
2022/03/08 01:52:55;;;;;;;10.45;5.70;;;0.60;99.90;;;;;;5034488;28;20127;-66
2022/03/08 01:55:22;;;;;;;10.30;6.07;;;0.10;99.90;;;;;;5033674;28;20375;-66
2022/03/08 01:57:50;;;;;;;10.60;6.20;;;0.40;99.90;;;;;;5034379;28;20045;-66
2022/03/08 02:00:20;;;;;;;17.83;6.13;;;0.60;99.90;;;;;;5034467;28;20041;-66
2022/03/08 02:02:46;;;;;;;11.10;6.35;;;0.40;99.90;;;;;;5033710;28;20116;-66
2022/03/08 02:05:12;;;;;;;11.52;6.13;;;0.70;99.90;;;;;;5034124;28;20120;-66
2022/03/08 02:07:38;;;;;;;11.98;6.50;;;0.20;99.90;;;;;;5035896;28;20038;-67
2022/03/08 02:10:06;;;;;;;11.80;5.75;;;0.50;99.90;;;;;;5033725;28;20115;-66
2022/03/08 02:12:32;;;;;;;11.90;6.03;;;0.40;99.90;;;;;;5018033;28;20045;-66
2022/03/08 02:14:58;;;;;;;13.13;6.43;;;0.30;99.90;;;;;;5033618;28;20046;-66
2022/03/08 02:17:24;;;;;;;12.73;6.40;;;1.40;99.90;;;;;;5033300;28;20069;-66
2022/03/08 02:19:50;;;;;;;11.15;5.90;;;0.30;99.90;;;;;;5035272;28;20482;-66
2022/03/08 02:22:16;;;;;;;11.68;5.97;;;;;;;;;;5033540;28;20112;-66
2022/03/08 02:24:41;;;;;;;11.77;6.05;;;0.40;99.90;;;;;;5016731;28;20095;-66
2022/03/08 02:27:08;;;;;;;12.93;6.22;;;0.30;99.90;;;;;;5033666;28;20037;-66
2022/03/08 02:29:34;;;;;;;12.60;6.13;;;0.60;99.90;;;;;;5035489;28;20482;-66
2022/03/08 02:31:59;;;;;;;10.75;5.78;;;0.50;99.90;;;;;;5034318;28;20120;-66
2022/03/08 02:34:25;;;;;;;11.43;6.13;;;0.40;99.90;;;;;;5035195;28;20065;-66
2022/03/08 02:37:05;;;;;;;10.48;6.32;;;0.20;99.90;;;;;;5035015;28;20052;-66
2022/03/08 02:39:30;;;;;;;15.18;6.20;;;0.40;99.90;;;;;;5036338;28;20068;-66
2022/03/08 02:41:56;;;;;;;10.93;6.07;;;0.20;99.90;;;;;;5054900;28;20091;-66
2022/03/08 02:44:22;;;;;;;11.38;6.05;;;0.90;99.90;;;;;;5054021;28;20099;-66
2022/03/08 02:46:47;;;;;;;9.23;6.07;;;0.70;99.90;;;;;;5036810;28;20386;-66
2022/03/08 02:49:13;;;;;;;11.40;6.50;;;0.20;99.90;;;;;;5036938;28;20106;-66
2022/03/08 02:51:39;;;;;;;11.38;6.35;;;0.30;99.90;;;;;;5036050;28;20045;-66
2022/03/08 02:54:05;;;;;;;18.38;6.45;;;2.00;99.90;;;;;;5037081;28;20033;-66
2022/03/08 02:56:30;;;;;;;12.68;6.93;;;0.00;99.90;;;;;;5020141;28;20477;-66
2022/03/08 02:58:56;;;;;;;12.52;8.25;;;0.50;99.90;;;;;;5035701;28;20041;-66
2022/03/08 03:01:21;;;;;;;11.77;6.90;;;1.00;99.90;;;;;;5036694;28;20465;-66
2022/03/08 03:03:47;;;;;;;12.90;6.80;;;0.30;99.90;;;;;;5020432;28;20037;-66
2022/03/08 03:06:13;;;;;;;11.80;6.47;;;-0.20;99.90;;;;;;5035670;28;20190;-66
2022/03/08 03:08:38;;;;;;;12.23;6.95;;;0.20;99.90;;;;;;5036755;28;20119;-66
2022/03/08 03:11:04;;;;;;;14.50;8.10;;;0.20;99.90;;;;;;5036326;28;20045;-66
2022/03/08 03:13:30;;;;;;;12.30;6.53;;;0.40;99.90;;;;;;5053107;28;20051;-66
2022/03/08 03:15:56;;;;;;;13.38;6.82;;;;;;;;;;5054288;28;20041;-66
2022/03/08 03:18:22;;;;;;;11.70;7.20;;;;;;;;;;5053949;28;20041;-66
2022/03/08 03:20:47;;;;;;;11.25;6.63;;;-0.30;99.90;;;;;;5053246;28;20393;-66
2022/03/08 03:23:13;;;;;;;11.13;6.65;;;0.50;99.90;;;;;;5036082;28;20045;-66
2022/03/08 03:25:38;;;;;;;12.25;6.85;;;0.00;99.90;;;;;;5036443;28;20045;-66
2022/03/08 03:28:04;;;;;;;12.80;7.35;;;0.30;99.90;;;;;;5053065;28;20462;-66
2022/03/08 03:30:30;;;;;;;11.90;7.43;;;0.10;99.90;;;;;;5035937;28;20076;-66
2022/03/08 03:32:55;;;;;;;13.52;6.63;;;-0.20;99.90;;;;;;5035486;28;20045;-66
2022/03/08 03:35:21;;;;;;;15.02;6.95;;;0.10;99.90;;;;;;5034943;28;20112;-66
2022/03/08 03:37:46;;;;;;;11.45;7.70;;;-0.30;99.90;;;;;;5036045;28;20037;-66
2022/03/08 03:40:13;;;;;;;11.25;7.28;;;0.20;99.90;;;;;;5032450;28;20049;-66
2022/03/08 03:42:39;;;;;;;13.30;6.93;;;0.20;99.90;;;;;;5031782;28;20041;-66
2022/03/08 03:45:06;;;;;;;13.77;6.82;;;-0.40;99.90;;;;;;5033973;28;20379;-66
2022/03/08 03:47:32;;;;;;;13.27;7.45;;;;;;;;;;5032657;28;20060;-66
2022/03/08 03:49:58;;;;;;;13.30;7.93;;;-0.20;99.90;;;;;;5032457;28;20049;-66
2022/03/08 03:52:23;;;;;;;12.48;7.45;;;0.00;99.90;;;;;;5032308;28;20513;-66
2022/03/08 03:54:49;;;;;;;12.45;6.50;;;-0.10;99.90;;;;;;5031142;28;20049;-66
2022/03/08 03:57:15;;;;;;;13.23;6.75;;;0.00;99.90;;;;;;5033188;28;20049;-66
2022/03/08 03:59:40;;;;;;;12.45;7.07;;;0.10;99.90;;;;;;5032205;28;20081;-66
2022/03/08 04:02:06;;;;;;;12.63;7.85;;;0.30;99.90;;;;;;5033035;28;20030;-66
2022/03/08 04:04:32;;;;;;;14.00;8.30;;;0.10;99.90;;;;;;5032462;28;20041;-66
2022/03/08 04:06:57;;;;;;;12.68;7.55;;;-0.10;99.90;;;;;;5032212;28;20441;-66
2022/03/08 04:09:23;;;;;;;13.55;7.68;;;-0.30;99.90;;;;;;5032663;28;20108;-66
2022/03/08 04:11:49;;;;;;;14.25;8.02;;;0.30;99.90;;;;;;5032275;28;20037;-66
2022/03/08 04:14:15;;;;;;;12.98;6.97;;;0.30;99.90;;;;;;5033214;28;20037;-65
2022/03/08 04:16:41;;;;;;;13.23;7.30;;;0.00;99.90;;;;;;5032271;28;20107;-66
2022/03/08 04:19:07;;;;;;;13.55;7.88;;;;;;;;;;5031702;28;20449;-66
2022/03/08 04:21:33;;;;;;;14.93;8.18;;;-0.10;99.90;;;;;;5032036;28;20041;-66
2022/03/08 04:23:59;;;;;;;13.85;7.97;;;-0.20;99.90;;;;;;5031959;28;20025;-66
2022/03/08 04:26:25;;;;;;;13.23;7.80;;;0.20;99.90;;;;;;5031741;28;20045;-66
2022/03/08 04:28:51;;;;;;;13.75;7.75;;;0.30;99.90;;;;;;5031724;28;20128;-65
2022/03/08 04:31:17;;;;;;;15.48;8.32;;;0.10;99.90;;;;;;5030833;28;20128;-66
2022/03/08 04:33:42;;;;;;;13.30;7.80;;;0.30;99.90;;;;;;5031767;28;20103;-65
2022/03/08 04:36:08;;;;;;;15.18;8.25;;;0.20;99.90;;;;;;5032773;28;20502;-65
2022/03/08 04:38:34;;;;;;;14.45;8.82;;;0.10;99.90;;;;;;5031042;28;20044;-65
2022/03/08 04:41:02;;;;;;;13.93;7.70;;;-0.10;99.90;;;;;;5047016;28;20060;-65
2022/03/08 04:43:29;;;;;;;16.17;9.05;;;0.10;99.90;;;;;;5034642;28;20037;-65
2022/03/08 04:45:55;;;;;;;14.10;8.75;;;-0.30;99.90;;;;;;5033900;28;20053;-66
2022/03/08 04:48:20;;;;;;;13.88;9.15;;;0.20;99.90;;;;;;5052453;28;20064;-65
2022/03/08 04:50:46;;;;;;;15.38;9.68;;;-0.20;99.90;;;;;;5034645;28;20041;-66
2022/03/08 04:53:12;;;;;;;16.73;9.10;;;0.20;99.90;;;;;;5034039;28;20053;-65
2022/03/08 04:55:37;;;;;;;15.00;8.38;;;-0.10;99.90;;;;;;5034314;28;20045;-65
2022/03/08 04:58:03;;;;;;;13.52;8.45;;;0.20;99.90;;;;;;5051577;28;20041;-66
2022/03/08 05:00:28;;;;;;;16.77;8.50;;;0.20;99.90;;;;;;5034645;28;20052;-65
2022/03/08 05:02:54;;;;;;;14.80;8.50;;;;;;;;;;5034248;28;20041;-66
2022/03/08 05:05:20;;;;;;;16.05;9.43;;;;;;;;;;5033914;28;20131;-66
2022/03/08 05:07:46;;;;;;;16.45;9.13;;;;;;;;;;5034669;28;20068;-66
2022/03/08 05:10:12;;;;;;;14.82;8.13;;;0.20;99.90;;;;;;5051819;28;20481;-65
2022/03/08 05:12:39;;;;;;;17.77;8.38;;;;;;;;;;5033860;28;20040;-65
2022/03/08 05:15:06;;;;;;;14.27;9.13;;;-0.10;99.90;;;;;;5034390;28;20533;-66
2022/03/08 05:17:32;;;;;;;16.10;8.30;;;;;;;;;;5034555;28;20033;-66
2022/03/08 05:19:58;;;;;;;17.10;8.50;;;;;;;;;;5033459;28;20037;-66
2022/03/08 05:22:24;;;;;;;13.70;9.27;;;-0.30;99.90;;;;;;5033473;28;20394;-66
2022/03/08 05:24:50;;;;;;;15.75;9.73;;;0.10;99.90;;;;;;5034025;28;20037;-66
2022/03/08 05:27:16;;;;;;;17.85;9.15;;;;;;;;;;5033488;28;20383;-66
2022/03/08 05:29:42;;;;;;;15.55;9.98;;;;;;;;;;5033920;28;20094;-66
2022/03/08 05:32:08;;;;;;;17.48;9.75;;;-0.20;99.90;;;;;;5033692;28;20599;-66
2022/03/08 05:34:34;;;;;;;16.08;10.32;;;;;;;;;;5033420;28;20040;-66
2022/03/08 05:37:00;;;;;;;18.17;9.98;;;;;;;;;;5033620;28;20201;-65
2022/03/08 05:39:26;;;;;;;16.27;9.40;;;-0.40;99.90;;;;;;5051359;28;20069;-66
2022/03/08 05:41:52;;;;;;;16.05;9.98;;;-0.50;99.90;;;;;;5033351;28;20051;-65
2022/03/08 05:44:18;;;;;;;18.13;9.75;;;;;;;;;;5033723;28;20466;-66
2022/03/08 05:46:44;;;;;;;18.52;10.85;;;0.00;99.90;;;;;;5033947;28;20367;-66
2022/03/08 05:49:10;;;;;;;16.65;10.00;;;;;;;;;;5051056;28;20098;-66
2022/03/08 05:51:36;;;;;;;21.50;11.95;;;;;;;;;;5034134;28;20045;-65
2022/03/08 05:54:02;;;;;;;24.58;12.63;;;0.00;99.90;;;;;;5051279;28;20040;-66
2022/03/08 05:56:28;;;;;;;17.60;10.50;;;0.50;99.90;;;;;;5032844;28;20051;-65
2022/03/08 05:58:53;;;;;;;17.17;9.70;;;-0.10;99.90;;;;;;5051673;28;20111;-65
2022/03/08 06:01:19;;;;;;;18.80;12.38;;;-0.10;99.90;;;;;;5033042;28;20048;-65
2022/03/08 06:03:45;;;;;;;15.10;9.10;;;;;;;;;;5051632;28;20082;-65
2022/03/08 06:06:12;;;;;;;41.50;22.30;;;;;;;;;;5051563;28;20131;-65
2022/03/08 06:08:38;;;;;;;20.95;12.20;;;-0.10;99.90;;;;;;5033139;28;20056;-65
2022/03/08 06:11:04;;;;;;;15.13;10.23;;;0.10;99.90;;;;;;5033449;28;20544;-65
2022/03/08 06:13:30;;;;;;;17.95;10.25;;;;;;;;;;5033557;28;20077;-66
2022/03/08 06:15:56;;;;;;;23.25;13.27;;;;;;;;;;5032345;28;20376;-65
2022/03/08 06:18:22;;;;;;;19.65;12.40;;;;;;;;;;5051466;28;20501;-65
2022/03/08 06:20:48;;;;;;;23.92;16.10;;;;;;;;;;5033482;28;20072;-65
2022/03/08 06:23:14;;;;;;;20.52;12.68;;;-0.10;99.90;;;;;;5050476;28;20118;-65
2022/03/08 06:25:40;;;;;;;19.98;12.02;;;;;;;;;;5033108;28;20195;-65
2022/03/08 06:28:06;;;;;;;19.23;11.98;;;;;;;;;;5033995;28;20132;-65
2022/03/08 06:30:33;;;;;;;21.58;11.27;;;;;;;;;;5050649;28;20171;-65
2022/03/08 06:32:59;;;;;;;20.80;14.02;;;;;;;;;;5033375;28;20053;-65
2022/03/08 06:35:25;;;;;;;16.60;8.93;;;0.10;99.90;;;;;;5036590;28;20044;-65
2022/03/08 06:37:50;;;;;;;19.77;11.05;;;0.10;99.90;;;;;;5019789;28;20052;-65
2022/03/08 06:40:16;;;;;;;16.85;9.20;;;;;;;;;;5036248;28;20513;-66
2022/03/08 06:42:43;;;;;;;15.93;9.30;;;;;;;;;;5052716;28;20049;-65
2022/03/08 06:45:09;;;;;;;17.33;9.27;;;;;;;;;;5019595;28;20041;-65
2022/03/08 06:47:36;;;;;;;17.75;9.60;;;0.10;99.90;;;;;;5037288;28;20037;-66
2022/03/08 06:50:02;;;;;;;19.02;10.27;;;;;;;;;;5036011;28;20048;-66
2022/03/08 06:52:28;;;;;;;17.75;9.48;;;;;;;;;;5036322;28;20032;-66
2022/03/08 06:54:54;;;;;;;15.05;8.85;;;;;;;;;;5036996;28;20497;-66
2022/03/08 06:57:20;;;;;;;16.02;9.25;;;;;;;;;;5036414;28;20052;-66
2022/03/08 06:59:46;;;;;;;17.10;8.85;;;;;;;;;;5019336;28;20068;-66
2022/03/08 07:02:12;;;;;;;17.55;9.05;;;;;;;;;;5033146;28;20123;-66
2022/03/08 07:04:38;;;;;;;21.15;10.65;;;;;;;;;;5052501;28;20040;-66
2022/03/08 07:07:04;;;;;;;26.95;10.73;;;;;;;;;;5038196;28;20047;-66
2022/03/08 07:09:31;;;;;;;13.40;7.28;;;;;;;;;;5032861;28;20057;-66
2022/03/08 07:11:57;;;;;;;16.52;9.10;;;;;;;;;;5033435;28;20424;-65
2022/03/08 07:14:23;;;;;;;16.60;8.43;;;;;;;;;;5033624;28;20508;-65
2022/03/08 07:16:49;;;;;;;15.27;7.93;;;;;;;;;;5017634;28;20045;-65
2022/03/08 07:19:16;;;;;;;14.57;7.95;;;;;;;;;;5033282;28;20055;-65
2022/03/08 07:21:42;;;;;;;14.68;8.43;;;;;;;;;;5033623;28;20049;-65
2022/03/08 07:24:08;;;;;;;13.70;8.07;;;;;;;;;;5033585;28;20041;-65
2022/03/08 07:26:34;;;;;;;14.05;9.15;;;;;;;;;;5037063;28;20045;-65
2022/03/08 07:29:00;;;;;;;14.68;8.55;;;;;;;;;;5034923;28;20052;-65
2022/03/08 07:31:26;;;;;;;19.65;9.00;;;;;;;;;;5064367;28;20464;-65
2022/03/08 07:33:52;;;;;;;16.63;8.98;;;;;;;;;;5043344;28;20651;-65
2022/03/08 07:36:18;;;;;;;15.05;8.20;;;;;;;;;;5013744;28;20041;-66
2022/03/08 07:38:44;;;;;;;15.07;7.88;;;;;;;;;;5034236;28;20045;-65
2022/03/08 07:41:11;;;;;;;13.13;7.47;;;;;;;;;;5020222;28;20383;-66
2022/03/08 07:43:36;;;;;;;20.38;10.05;;;;;;;;;;5051011;28;20492;-65
2022/03/08 07:46:07;;;;;;;25.88;14.25;;;;;;;;;;5032620;28;20041;-65
2022/03/08 07:48:34;;;;;;;14.15;8.85;;;;;;;;;;5032480;28;20045;-65
2022/03/08 07:51:00;;;;;;;16.42;10.73;;;;;;;;;;5032699;28;20084;-66
2022/03/08 07:53:26;;;;;;;16.08;8.88;;;;;;;;;;5052298;28;20076;-66
2022/03/08 07:55:52;;;;;;;12.13;7.35;;;;;;;;;;5032453;28;20148;-66
2022/03/08 07:58:19;;;;;;;13.90;8.75;;;;;;;;;;5050812;28;20545;-66
2022/03/08 08:00:45;;;;;;;13.02;7.60;;;;;;;;;;5050462;28;20103;-66
2022/03/08 08:03:11;;;;;;;14.48;8.60;;;;;;;;;;5032408;28;20079;-66
2022/03/08 08:05:38;;;;;;;15.07;8.30;;;2.20;99.90;;;;;;5031026;28;20466;-66
2022/03/08 08:08:05;;;;;;;14.57;8.93;;;;;;;;;;5010118;28;20045;-66
2022/03/08 08:10:31;;;;;;;15.40;8.65;;;;;;;;;;5020193;28;20037;-66
2022/03/08 08:12:57;;;;;;;14.10;7.95;;;;;;;;;;5031419;28;20052;-66
2022/03/08 08:15:23;;;;;;;14.18;7.43;;;;;;;;;;5020701;28;20167;-66
2022/03/08 08:17:49;;;;;;;13.70;9.10;;;;;;;;;;5031284;28;20777;-66
2022/03/08 08:20:15;;;;;;;14.00;8.02;;;;;;;;;;5032164;28;20091;-66
2022/03/08 08:22:42;;;;;;;12.30;8.10;;;;;;;;;;5031268;28;20128;-66
2022/03/08 08:25:09;;;;;;;13.95;7.82;;;;;;;;;;5027712;28;20056;-66
2022/03/08 08:27:37;;;;;;;15.98;8.40;;;;;;;;;;5031612;28;20040;-66
2022/03/08 08:30:03;;;;;;;14.45;8.18;;;;;;;;;;5013713;28;20486;-67
2022/03/08 08:32:29;;;;;;;12.10;7.85;;;;;;;;;;5031609;28;20041;-67
2022/03/08 08:34:55;;;;;;;14.98;7.00;;;;;;;;;;5031590;28;20370;-67
2022/03/08 08:37:21;;;;;;;13.57;8.02;;;;;;;;;;5030048;28;20037;-67
2022/03/08 08:39:47;;;;;;;15.20;7.43;;;;;;;;;;5031438;28;20149;-66
2022/03/08 08:42:12;;;;;;;13.48;7.38;;;3.60;99.90;;;;;;5030977;28;20044;-66
2022/03/08 08:44:39;;;;;;;12.88;7.30;;;4.30;99.90;;;;;;5031200;28;20405;-67
2022/03/08 08:47:05;;;;;;;11.05;6.90;;;3.80;99.90;;;;;;5032116;28;20040;-67
2022/03/08 08:49:31;;;;;;;12.07;7.03;;;;;;;;;;5049368;28;20048;-67
2022/03/08 08:51:57;;;;;;;16.80;8.20;;;;;;;;;;5049297;28;20063;-67
2022/03/08 08:54:24;;;;;;;11.45;8.00;;;;;;;;;;5024901;28;20040;-67
2022/03/08 08:56:50;;;;;;;11.32;6.35;;;;;;;;;;5029497;28;20553;-67
2022/03/08 08:59:16;;;;;;;11.45;6.35;;;;;;;;;;5013561;28;20041;-67
2022/03/08 09:01:42;;;;;;;12.18;7.25;;;;;;;;;;5036234;28;20045;-66
2022/03/08 09:04:08;;;;;;;10.60;5.65;;;;;;;;;;5017758;28;20171;-67
2022/03/08 09:06:34;;;;;;;11.57;6.72;;;;;;;;;;5036135;28;20049;-66
2022/03/08 09:09:00;;;;;;;12.30;6.70;;;;;;;;;;5023863;28;20052;-66
2022/03/08 09:11:27;;;;;;;9.93;6.00;;;;;;;;;;5032295;28;20331;-67
2022/03/08 09:13:53;;;;;;;11.38;6.53;;;4.70;99.90;;;;;;5048552;28;20045;-67
2022/03/08 09:16:19;;;;;;;10.95;6.85;;;;;;;;;;5030448;28;20469;-67
2022/03/08 09:18:45;;;;;;;10.18;5.82;;;;;;;;;;5028214;28;20033;-67
2022/03/08 09:21:12;;;;;;;10.80;6.68;;;4.90;99.90;;;;;;5030492;28;20126;-67
2022/03/08 09:23:38;;;;;;;11.60;6.25;;;5.20;99.90;;;;;;5017482;28;20041;-67
2022/03/08 09:26:05;;;;;;;10.93;6.85;;;5.20;99.90;;;;;;5024353;28;20045;-67
2022/03/08 09:28:33;;;;;;;10.55;5.40;;;;;;;;;;5031428;28;20124;-67
2022/03/08 09:30:59;;;;;;;13.48;6.88;;;;;;;;;;5029051;28;20063;-67
2022/03/08 09:33:25;;;;;;;8.82;5.78;;;;;;;;;;5028529;28;20037;-67
2022/03/08 09:35:51;;;;;;;9.85;5.68;;;;;;;;;;5030083;28;20057;-67
2022/03/08 09:38:17;;;;;;;10.30;5.90;;;;;;;;;;5030035;28;20051;-67
2022/03/08 09:40:43;;;;;;;10.40;5.75;;;;;;;;;;5028694;28;20409;-67
2022/03/08 09:43:10;;;;;;;10.27;6.00;;;;;;;;;;5019589;28;20497;-67
2022/03/08 09:45:36;;;;;;;10.75;6.60;;;;;;;;;;5030322;28;20053;-67
2022/03/08 09:48:03;;;;;;;10.13;4.95;;;6.10;99.90;;;;;;5031303;28;20072;-67
2022/03/08 09:50:29;;;;;;;8.55;5.35;;;;;;;;;;5030319;28;20052;-67
2022/03/08 09:52:57;;;;;;;9.57;5.03;;;6.30;99.90;;;;;;5048284;28;20425;-67
2022/03/08 09:55:25;;;;;;;8.55;5.32;;;;;;;;;;5028041;28;20115;-67
2022/03/08 09:57:52;;;;;;;8.35;5.05;;;6.40;99.90;;;;;;5028704;28;20073;-67
2022/03/08 10:00:18;;;;;;;8.35;5.45;;;;;;;;;;5047373;28;20429;-67
2022/03/08 10:02:50;;;;;;;7.05;4.35;;;6.50;99.90;;;;;;5007476;28;20120;-67
2022/03/08 10:05:24;;;;;;;15.30;7.57;;;6.60;99.90;;;;;;5048218;28;20041;-67
2022/03/08 10:08:19;;;;;;;29.48;14.90;;;6.60;99.90;;;;;;5028203;28;20029;-67
2022/03/08 10:10:51;;;;;;;9.45;5.78;;;6.60;99.90;;;;;;5034497;28;20045;-67
2022/03/08 10:13:18;;;;;;;8.45;5.18;;;;;;;;;;5033648;28;20136;-67
2022/03/08 10:15:44;;;;;;;8.98;5.00;;;;;;;;;;5034614;28;20110;-67
2022/03/08 10:18:11;;;;;;;10.70;6.07;;;;;;;;;;5034901;28;20047;-67
2022/03/08 10:20:37;;;;;;;8.88;5.47;;;;;;;;;;5035012;28;20037;-67
2022/03/08 10:23:11;;;;;;;8.80;5.03;;;7.00;99.90;;;;;;5050768;28;20052;-68
2022/03/08 10:25:37;;;;;;;9.48;5.40;;;;;;;;;;5034381;28;20056;-68
2022/03/08 10:28:05;;;;;;;10.32;5.75;;;7.10;99.90;;;;;;5034388;28;20408;-67
2022/03/08 10:30:43;;;;;;;9.40;5.32;;;7.20;99.90;;;;;;5051364;28;20392;-67
2022/03/08 10:33:09;;;;;;;9.18;5.50;;;;;;;;;;5034328;28;20854;-68
2022/03/08 10:35:39;;;;;;;9.20;4.70;;;;;;;;;;5033482;28;20128;-67
2022/03/08 10:38:08;;;;;;;8.50;5.13;;;;;;;;;;5034692;28;20056;-67
2022/03/08 10:40:34;;;;;;;8.75;5.10;;;;;;;;;;5052244;28;20485;-67
2022/03/08 10:43:02;;;;;;;12.05;5.22;;;;;;;;;;5033948;28;20168;-66
2022/03/08 10:45:29;;;;;;;14.65;5.20;;;7.70;99.90;;;;;;5034363;28;20075;-66
2022/03/08 10:47:55;;;;;;;7.85;4.53;;;7.60;99.90;;;;;;5034727;28;20049;-66
2022/03/08 10:50:30;;;;;;;8.85;5.25;;;7.60;99.90;;;;;;5032912;28;20072;-66
2022/03/08 10:52:58;;;;;;;9.00;4.63;;;7.60;99.90;;;;;;5034437;28;20052;-66
2022/03/08 10:55:26;;;;;;;9.73;4.93;;;7.50;99.90;;;;;;5034548;28;20048;-65
2022/03/08 10:58:01;;;;;;;8.40;4.47;;;7.60;99.90;;;;;;5032400;28;20047;-66
2022/03/08 11:00:38;;;;;;;8.55;4.72;;;7.70;99.90;;;;;;5033884;28;20393;-66
2022/03/08 11:03:11;;;;;;;8.38;4.93;;;;;;;;;;5034665;28;20386;-66
2022/03/08 11:05:44;;;;;;;8.48;5.00;;;;;;;;;;5034180;28;20378;-66
2022/03/08 11:08:11;;;;;;;10.15;5.22;;;;;;;;;;5032662;28;20567;-67
2022/03/08 11:10:37;;;;;;;9.32;4.63;;;;;;;;;;5017731;28;20045;-67
2022/03/08 11:13:04;;;;;;;8.25;4.15;;;;;;;;;;5033703;28;20041;-67
2022/03/08 11:15:31;;;;;;;9.63;4.95;;;;;;;;;;5034039;28;20449;-66
2022/03/08 11:17:58;;;;;;;8.27;4.60;;;;;;;;;;5033259;28;20045;-66
2022/03/08 11:20:25;;;;;;;10.07;4.90;;;;;;;;;;5032708;28;20048;-66
2022/03/08 11:22:52;;;;;;;9.40;4.97;;;;;;;;;;5032133;28;20056;-66
2022/03/08 11:25:18;;;;;;;8.13;3.53;;;;;;;;;;5032253;28;20182;-66
2022/03/08 11:27:48;;;;;;;10.38;4.95;;;;;;;;;;5033987;28;20045;-67
2022/03/08 11:30:22;;;;;;;8.95;4.70;;;8.50;99.50;;;;;;5017365;28;20040;-66
2022/03/08 11:33:06;;;;;;;8.07;4.95;;;;;;;;;;5034035;28;20045;-66
2022/03/08 11:35:40;;;;;;;11.00;5.03;;;;;;;;;;5035645;28;20094;-65
2022/03/08 11:38:06;;;;;;;8.50;4.65;;;;;;;;;;5036368;28;20037;-70
2022/03/08 11:40:53;;;;;;;10.60;4.80;;;;;;;;;;5034485;28;20041;-69
2022/03/08 11:43:19;;;;;;;14.13;5.25;;;;;;;;;;5035093;28;20087;-69
2022/03/08 11:45:48;;;;;;;11.90;5.00;;;8.60;99.90;;;;;;5053847;28;20073;-69
2022/03/08 11:48:19;;;;;;;9.20;4.82;;;9.20;99.90;;;;;;5019093;28;20098;-69
2022/03/08 11:50:44;;;;;;;9.27;4.78;;;8.80;99.90;;;;;;5035784;28;20040;-68
2022/03/08 11:53:25;;;;;;;9.23;4.82;;;9.20;99.10;;;;;;5034304;28;20096;-68
2022/03/08 11:55:55;;;;;;;9.27;4.90;;;9.50;96.50;;;;;;5035800;28;20052;-69
2022/03/08 11:58:43;;;;;;;12.48;5.40;;;9.70;95.40;;;;;;5035511;28;20401;-68
2022/03/08 12:01:22;;;;;;;8.40;4.88;;;9.00;99.90;;;;;;5034976;28;20036;-68
2022/03/08 12:03:57;;;;;;;9.75;4.57;;;9.20;99.90;;;;;;5035640;28;20076;-68
2022/03/08 12:06:36;;;;;;;7.88;4.85;;;9.20;99.90;;;;;;5035387;28;20056;-68
2022/03/08 12:09:18;;;;;;;8.43;4.85;;;9.10;99.90;;;;;;5034140;28;20551;-68
2022/03/08 12:11:50;;;;;;;7.85;4.05;;;9.10;98.90;;;;;;5035286;28;20482;-69
2022/03/08 12:14:15;;;;;;;9.00;4.45;;;9.20;94.00;;;;;;5034513;28;20680;-69
2022/03/08 12:16:53;;;;;;;8.23;4.35;;;9.30;99.10;;;;;;5034517;28;20124;-69
2022/03/08 12:19:36;;;;;;;7.93;4.55;;;8.70;99.60;;;;;;5052377;28;20045;-68
2022/03/08 12:22:07;;;;;;;10.02;5.50;;;9.10;80.60;;;;;;5034702;28;20420;-68
2022/03/08 12:24:39;;;;;;;8.82;4.18;;;9.10;82.40;;;;;;5053402;28;20036;-69
2022/03/08 12:27:07;;;;;;;9.05;4.53;;;9.20;81.60;;;;;;5035346;28;20496;-69
2022/03/08 12:29:48;;;;;;;7.40;4.07;;;9.30;79.80;;;;;;5034410;28;20125;-68
2022/03/08 12:32:34;;;;;;;7.95;4.68;;;9.30;79.20;;;;;;5034037;28;20049;-68
2022/03/08 12:35:14;;;;;;;8.25;5.00;;;9.30;79.00;;;;;;5035167;28;20142;-68
2022/03/08 12:37:55;;;;;;;7.10;4.57;;;9.50;77.20;;;;;;5033918;28;20048;-69
2022/03/08 12:40:27;;;;;;;7.47;4.20;;;9.40;78.50;;;;;;5034712;28;20053;-69
2022/03/08 12:42:55;;;;;;;7.90;4.47;;;9.60;92.50;;;;;;5034052;28;20525;-69
2022/03/08 12:45:31;;;;;;;6.80;3.58;;;10.40;86.60;;;;;;5051917;28;20052;-69
2022/03/08 12:48:06;;;;;;;6.25;3.53;;;9.60;95.70;;;;;;5034011;28;20485;-69
2022/03/08 12:50:37;;;;;;;7.15;4.72;;;9.80;95.20;;;;;;5034018;28;20090;-69
2022/03/08 12:53:27;;;;;;;6.85;3.70;;;9.50;94.50;;;;;;5034143;28;20056;-69
2022/03/08 12:56:01;;;;;;;6.22;3.92;;;9.60;94.50;;;;;;5034197;28;20059;-69
2022/03/08 12:58:29;;;;;;;7.22;3.58;;;9.80;73.80;;;;;;5017358;28;20125;-68
2022/03/08 13:00:56;;;;;;;7.53;3.83;;;9.60;94.10;;;;;;5051458;28;20389;-69
2022/03/08 13:03:31;;;;;;;7.55;4.40;;;10.00;94.00;;;;;;5034051;28;20443;-69
2022/03/08 13:06:02;;;;;;;7.25;3.88;;;9.70;93.80;;;;;;5033590;28;20058;-69
2022/03/08 13:08:30;;;;;;;6.45;4.00;;;10.20;94.80;;;;;;5034220;28;20037;-69
2022/03/08 13:10:57;;;;;;;8.65;4.28;;;10.00;95.00;;;;;;5033724;28;20389;-68
2022/03/08 13:13:24;;;;;;;8.88;4.30;;;9.80;92.60;;;;;;5034639;28;20531;-69
2022/03/08 13:15:51;;;;;;;6.05;3.38;;;10.40;92.60;;;;;;5051872;28;20049;-69
2022/03/08 13:18:25;;;;;;;6.93;3.72;;;10.00;92.10;;;;;;5051196;28;20045;-69
2022/03/08 13:20:52;;;;;;;7.18;4.38;;;10.00;92.10;;;;;;5034401;28;20045;-70
2022/03/08 13:23:23;;;;;;;6.97;3.58;;;10.10;92.00;;;;;;5034198;28;20041;-68
2022/03/08 13:25:51;;;;;;;7.90;3.65;;;10.60;91.50;;;;;;5033395;28;20512;-68